createdAt,value
2023-11-18T00:00:00.580Z,993.0
2023-11-18T00:10:00.596Z,993.2
2023-11-18T00:20:00.766Z,993.3
2023-11-18T00:30:00.670Z,993.5
2023-11-18T00:40:00.755Z,993.5
2023-11-18T00:50:00.700Z,993.8
2023-11-18T01:00:00.676Z,993.8
2023-11-18T01:10:00.671Z,993.8
2023-11-18T01:20:00.906Z,993.9
2023-11-18T01:30:00.616Z,994.0
2023-11-18T01:40:00.598Z,993.9
2023-11-18T01:50:00.914Z,993.8
2023-11-18T02:00:00.594Z,993.9
2023-11-18T02:10:00.597Z,994.0
2023-11-18T02:20:00.785Z,994.0
2023-11-18T02:30:00.619Z,994.2
2023-11-18T02:40:00.802Z,994.2
2023-11-18T02:50:00.705Z,994.1
2023-11-18T03:00:00.787Z,994.2
2023-11-18T03:10:00.604Z,994.2
2023-11-18T03:20:01.076Z,994.4
2023-11-18T03:30:00.720Z,994.6
2023-11-18T03:40:01.270Z,994.4
2023-11-18T03:50:00.949Z,994.6
2023-11-18T04:00:00.842Z,994.8
2023-11-18T04:10:00.870Z,995.0
2023-11-18T04:20:00.652Z,995.2
2023-11-18T04:30:01.133Z,995.3
2023-11-18T04:40:00.762Z,995.4
2023-11-18T04:50:06.556Z,995.6
2023-11-18T05:00:01.058Z,995.6
2023-11-18T05:10:01.469Z,995.6
2023-11-18T05:20:06.430Z,995.6
2023-11-18T05:30:01.161Z,995.5
2023-11-18T05:40:02.765Z,995.5
2023-11-18T05:50:00.843Z,995.4
2023-11-18T06:00:00.744Z,995.4
2023-11-18T06:10:00.753Z,995.5
2023-11-18T06:20:01.760Z,995.5
2023-11-18T06:30:01.081Z,995.6
2023-11-18T06:40:00.721Z,996.0
2023-11-18T06:50:00.882Z,996.0
2023-11-18T07:00:00.842Z,996.2
2023-11-18T07:10:00.788Z,996.0
2023-11-18T07:20:00.789Z,996.0
2023-11-18T07:30:00.992Z,996.1
2023-11-18T07:40:00.630Z,996.0
2023-11-18T07:50:00.708Z,996.1
2023-11-18T08:00:00.887Z,996.2
2023-11-18T08:10:03.071Z,996.1
2023-11-18T08:20:00.766Z,995.7
2023-11-18T08:30:00.826Z,995.5
2023-11-18T08:40:00.725Z,995.3
2023-11-18T08:50:00.651Z,995.2
2023-11-18T09:00:00.616Z,995.0
2023-11-18T09:10:00.841Z,995.1
2023-11-18T09:20:00.824Z,994.9
2023-11-18T09:30:00.909Z,994.8
2023-11-18T09:40:00.832Z,995.1
2023-11-18T09:50:01.000Z,994.9
2023-11-18T10:00:01.052Z,994.9
2023-11-18T10:10:00.817Z,994.7
2023-11-18T10:20:00.939Z,994.6
2023-11-18T10:30:00.621Z,994.4
2023-11-18T10:40:00.887Z,994.6
2023-11-18T10:50:00.685Z,994.4
2023-11-18T11:00:00.751Z,994.4
2023-11-18T11:10:00.605Z,994.3
2023-11-18T11:20:00.779Z,994.3
2023-11-18T11:30:00.647Z,994.2
2023-11-18T11:40:00.632Z,994.5
2023-11-18T11:50:01.781Z,994.6
2023-11-18T12:00:13.029Z,994.8
2023-11-18T12:10:00.478Z,994.6
2023-11-18T12:20:01.183Z,994.8
2023-11-18T12:30:00.539Z,995.0
2023-11-18T12:40:00.488Z,994.8
2023-11-18T12:50:00.568Z,994.9
2023-11-18T13:00:00.522Z,994.9
2023-11-18T13:10:00.451Z,995.1
2023-11-18T13:20:00.554Z,995.2
2023-11-18T13:30:00.562Z,995.2
2023-11-18T13:40:00.465Z,995.3
2023-11-18T13:50:00.485Z,995.5
2023-11-18T14:00:00.470Z,995.6
2023-11-18T14:10:00.454Z,995.7
2023-11-18T14:20:00.577Z,995.9
2023-11-18T14:30:00.521Z,996.0
2023-11-18T14:40:00.443Z,996.2
2023-11-18T14:50:00.746Z,996.1
2023-11-18T15:00:00.794Z,996.3
2023-11-18T15:10:00.538Z,996.3
2023-11-18T15:20:00.508Z,996.2
2023-11-18T15:30:00.445Z,996.4
2023-11-18T15:40:00.450Z,996.7
2023-11-18T15:50:00.496Z,996.7
2023-11-18T16:00:00.439Z,996.6
2023-11-18T16:10:00.470Z,996.6
2023-11-18T16:20:00.535Z,996.8
2023-11-18T16:30:00.536Z,997.0
2023-11-18T16:40:00.481Z,996.9
2023-11-18T16:50:03.894Z,997.0
2023-11-18T17:00:00.449Z,997.1
2023-11-18T17:10:00.463Z,997.1
2023-11-18T17:20:00.551Z,997.4
2023-11-18T17:30:00.508Z,997.6
2023-11-18T17:40:00.465Z,997.5
2023-11-18T17:50:00.536Z,997.5
2023-11-18T18:00:00.481Z,997.5
2023-11-18T18:10:00.632Z,997.7
2023-11-18T18:20:00.575Z,997.8
2023-11-18T18:30:00.801Z,997.8
2023-11-18T18:40:02.561Z,997.8
2023-11-18T18:50:00.695Z,997.7
2023-11-18T19:00:00.480Z,997.9
2023-11-18T19:10:00.457Z,998.0
2023-11-18T19:20:00.600Z,997.7
2023-11-18T19:30:00.601Z,998.2
2023-11-18T19:40:00.480Z,998.2
2023-11-18T19:50:00.582Z,998.4
2023-11-18T20:00:00.530Z,998.7
2023-11-18T20:10:00.510Z,998.7
2023-11-18T20:20:00.690Z,999.0
2023-11-18T20:30:00.466Z,999.3
2023-11-18T20:40:00.449Z,999.6
2023-11-18T20:50:00.461Z,999.6
2023-11-18T21:00:00.512Z,999.6
2023-11-18T21:10:00.526Z,999.2
2023-11-18T21:20:00.494Z,999.0
2023-11-18T21:30:00.508Z,998.8
2023-11-18T21:40:00.484Z,998.5
2023-11-18T21:50:00.467Z,998.5
2023-11-18T22:00:00.486Z,998.3
2023-11-18T22:10:00.466Z,997.9
2023-11-18T22:20:00.441Z,998.2
2023-11-18T22:30:00.539Z,998.1
2023-11-18T22:40:00.444Z,998.3
2023-11-18T22:50:00.450Z,998.3
2023-11-18T23:00:00.469Z,998.6
2023-11-18T23:10:00.499Z,998.6
2023-11-18T23:20:00.441Z,998.8
2023-11-18T23:30:00.509Z,998.7
2023-11-18T23:40:00.515Z,998.9
2023-11-18T23:50:00.511Z,998.9
